<?xml version="1.0" encoding="utf-8"?>
<gpx xmlns:xsi="http://www.w3.org/2001/XMLSchema-instance" xmlns:xsd="http://www.w3.org/2001/XMLSchema" version="1.1" creator="Shapelink.com" xmlns="http://www.topografix.com/GPX/1/1" xmlns:gpxtpx="http://www.garmin.com/xmlschemas/TrackPointExtension/v1">
  <metadata>
    <name>Övrigt 2.12 km, 2020-06-07</name>
    <desc></desc>
    <author><name>Marian Moron</name></author> 
    <time>2020-06-07T20:22:00Z</time>
  </metadata>
  <trk>
    <name>Övrigt 2.12 km, 2020-06-07</name>
    <trkseg>
      <trkpt lat="51.229632754183" lon="4.458180310877">
        <ele>0</ele>
        <time>2020-06-07T20:22:00Z</time>
      </trkpt>
      <trkpt lat="51.229605429189" lon="4.458191291166">
        <ele>0</ele>
        <time>2020-06-07T20:22:02Z</time>
      </trkpt>
      <trkpt lat="51.229155069702" lon="4.458245857335">
        <ele>1.4</ele>
        <time>2020-06-07T20:22:30Z</time>
      </trkpt>
      <trkpt lat="51.228947952953" lon="4.458310984698">
        <ele>1</ele>
        <time>2020-06-07T20:22:44Z</time>
      </trkpt>
      <trkpt lat="51.228608988917" lon="4.45848851334">
        <ele>0</ele>
        <time>2020-06-07T20:23:05Z</time>
      </trkpt>
      <trkpt lat="51.228536988396" lon="4.458526650985">
        <ele>0.6</ele>
        <time>2020-06-07T20:23:23Z</time>
      </trkpt>
      <trkpt lat="51.228441350917" lon="4.458560765318">
        <ele>1.2</ele>
        <time>2020-06-07T20:23:35Z</time>
      </trkpt>
      <trkpt lat="51.228116468473" lon="4.458660509928">
        <ele>1</ele>
        <time>2020-06-07T20:24:05Z</time>
      </trkpt>
      <trkpt lat="51.227709275771" lon="4.458952786781">
        <ele>1.4</ele>
        <time>2020-06-07T20:24:50Z</time>
      </trkpt>
      <trkpt lat="51.227671976316" lon="4.458973154798">
        <ele>1.4</ele>
        <time>2020-06-07T20:24:54Z</time>
      </trkpt>
      <trkpt lat="51.227299400861" lon="4.459075749254">
        <ele>0</ele>
        <time>2020-06-07T20:25:28Z</time>
      </trkpt>
      <trkpt lat="51.227028833129" lon="4.459254619">
        <ele>0</ele>
        <time>2020-06-07T20:25:54Z</time>
      </trkpt>
      <trkpt lat="51.226628178309" lon="4.459591319923">
        <ele>0</ele>
        <time>2020-06-07T20:26:34Z</time>
      </trkpt>
      <trkpt lat="51.226334225076" lon="4.459921650602">
        <ele>0</ele>
        <time>2020-06-07T20:27:34Z</time>
      </trkpt>
      <trkpt lat="51.226272618111" lon="4.460027178723">
        <ele>5</ele>
        <time>2020-06-07T20:27:44Z</time>
      </trkpt>
      <trkpt lat="51.226273623939" lon="4.460115021035">
        <ele>8.2</ele>
        <time>2020-06-07T20:27:48Z</time>
      </trkpt>
      <trkpt lat="51.226306145711" lon="4.460176544181">
        <ele>7</ele>
        <time>2020-06-07T20:28:13Z</time>
      </trkpt>
      <trkpt lat="51.226197013373" lon="4.460031872587">
        <ele>9.2</ele>
        <time>2020-06-07T20:28:36Z</time>
      </trkpt>
      <trkpt lat="51.226217046114" lon="4.460097502864">
        <ele>9.8</ele>
        <time>2020-06-07T20:28:41Z</time>
      </trkpt>
      <trkpt lat="51.2263422717" lon="4.46048927287">
        <ele>10</ele>
        <time>2020-06-07T20:29:03Z</time>
      </trkpt>
      <trkpt lat="51.226522734007" lon="4.461163764363">
        <ele>10.6</ele>
        <time>2020-06-07T20:29:39Z</time>
      </trkpt>
      <trkpt lat="51.226586017352" lon="4.461631139107">
        <ele>4.8</ele>
        <time>2020-06-07T20:30:04Z</time>
      </trkpt>
      <trkpt lat="51.226780142156" lon="4.46227964671">
        <ele>13</ele>
        <time>2020-06-07T20:30:41Z</time>
      </trkpt>
      <trkpt lat="51.226857674731" lon="4.462368578669">
        <ele>21.2</ele>
        <time>2020-06-07T20:30:50Z</time>
      </trkpt>
      <trkpt lat="51.226966471793" lon="4.463046842017">
        <ele>22.8</ele>
        <time>2020-06-07T20:31:23Z</time>
      </trkpt>
      <trkpt lat="51.226926993044" lon="4.463130577198">
        <ele>17.6</ele>
        <time>2020-06-07T20:31:31Z</time>
      </trkpt>
      <trkpt lat="51.22693571022" lon="4.463321768337">
        <ele>13.2</ele>
        <time>2020-06-07T20:31:44Z</time>
      </trkpt>
      <trkpt lat="51.227059427064" lon="4.463877572126">
        <ele>22</ele>
        <time>2020-06-07T20:32:31Z</time>
      </trkpt>
      <trkpt lat="51.227193369826" lon="4.464571425808">
        <ele>27.4</ele>
        <time>2020-06-07T20:33:11Z</time>
      </trkpt>
      <trkpt lat="51.227225221046" lon="4.465283216756">
        <ele>17.2</ele>
        <time>2020-06-07T20:33:48Z</time>
      </trkpt>
      <trkpt lat="51.227421273687" lon="4.46595259529">
        <ele>27.2</ele>
        <time>2020-06-07T20:34:22Z</time>
      </trkpt>
      <trkpt lat="51.227437031659" lon="4.465980758474">
        <ele>27.8</ele>
        <time>2020-06-07T20:34:24Z</time>
      </trkpt>
      <trkpt lat="51.227355308134" lon="4.466239591546">
        <ele>10.6</ele>
        <time>2020-06-07T20:35:28Z</time>
      </trkpt>
      <trkpt lat="51.227779180817" lon="4.466462969181">
        <ele>0.6</ele>
        <time>2020-06-07T20:36:10Z</time>
      </trkpt>
      <trkpt lat="51.227871549355" lon="4.466232299293">
        <ele>0</ele>
        <time>2020-06-07T20:36:31Z</time>
      </trkpt>
      <trkpt lat="51.227879595979" lon="4.465528554969">
        <ele>0</ele>
        <time>2020-06-07T20:37:17Z</time>
      </trkpt>
      <trkpt lat="51.227872219907" lon="4.464812489252">
        <ele>4.6</ele>
        <time>2020-06-07T20:37:56Z</time>
      </trkpt>
      <trkpt lat="51.227846152198" lon="4.464459443624">
        <ele>3</ele>
        <time>2020-06-07T20:38:26Z</time>
      </trkpt>
      <trkpt lat="51.227788736183" lon="4.463843457793">
        <ele>2.6</ele>
        <time>2020-06-07T20:39:06Z</time>
      </trkpt>
      <trkpt lat="51.227673568877" lon="4.463144072057">
        <ele>0.8</ele>
        <time>2020-06-07T20:39:42Z</time>
      </trkpt>
      <trkpt lat="51.227692176695" lon="4.4630013283">
        <ele>4.6</ele>
        <time>2020-06-07T20:39:51Z</time>
      </trkpt>
      <trkpt lat="51.227566615833" lon="4.462320634201">
        <ele>5.8</ele>
        <time>2020-06-07T20:40:27Z</time>
      </trkpt>
      <trkpt lat="51.227429990863" lon="4.461796430175">
        <ele>1.2</ele>
        <time>2020-06-07T20:40:55Z</time>
      </trkpt>
      <trkpt lat="51.227398474919" lon="4.461685034724">
        <ele>1.6</ele>
        <time>2020-06-07T20:41:10Z</time>
      </trkpt>
      <trkpt lat="51.227343824931" lon="4.461356883339">
        <ele>0.6</ele>
        <time>2020-06-07T20:41:26Z</time>
      </trkpt>
      <trkpt lat="51.227316416118" lon="4.461082376114">
        <ele>0.2</ele>
        <time>2020-06-07T20:41:56Z</time>
      </trkpt>
      <trkpt lat="51.227358074161" lon="4.460878025392">
        <ele>3</ele>
        <time>2020-06-07T20:42:11Z</time>
      </trkpt>
      <trkpt lat="51.227236788068" lon="4.460176292724">
        <ele>0</ele>
        <time>2020-06-07T20:42:48Z</time>
      </trkpt>
      <trkpt lat="51.227064875299" lon="4.459518397393">
        <ele>0</ele>
        <time>2020-06-07T20:43:23Z</time>
      </trkpt>
      <trkpt lat="51.227042327988" lon="4.45915906534">
        <ele>0</ele>
        <time>2020-06-07T20:43:45Z</time>
      </trkpt>
      <trkpt lat="51.227148778118" lon="4.459066696802">
        <ele>3.8</ele>
        <time>2020-06-07T20:44:07Z</time>
      </trkpt>
      <trkpt lat="51.227570806783" lon="4.458816077992">
        <ele>17</ele>
        <time>2020-06-07T20:44:44Z</time>
      </trkpt>
      <trkpt lat="51.227977748028" lon="4.458587838855">
        <ele>17.4</ele>
        <time>2020-06-07T20:45:15Z</time>
      </trkpt>
      <trkpt lat="51.228397765037" lon="4.458334621656">
        <ele>7.6</ele>
        <time>2020-06-07T20:45:45Z</time>
      </trkpt>
      <trkpt lat="51.228475884345" lon="4.458272008863">
        <ele>2.6</ele>
        <time>2020-06-07T20:46:04Z</time>
      </trkpt>
      <trkpt lat="51.228535563473" lon="4.457569940919">
        <ele>0</ele>
        <time>2020-06-07T20:46:42Z</time>
      </trkpt>
      <trkpt lat="51.228768747931" lon="4.456995110217">
        <ele>0</ele>
        <time>2020-06-07T20:47:23Z</time>
      </trkpt>
      <trkpt lat="51.229151633123" lon="4.456618427631">
        <ele>2</ele>
        <time>2020-06-07T20:47:57Z</time>
      </trkpt>
      <trkpt lat="51.229589168303" lon="4.456503930877">
        <ele>6</ele>
        <time>2020-06-07T20:48:38Z</time>
      </trkpt>
      <trkpt lat="51.229618504953" lon="4.456549025499">
        <ele>8.2</ele>
        <time>2020-06-07T20:48:39Z</time>
      </trkpt>
      <trkpt lat="51.229832159584" lon="4.457187391003">
        <ele>17.4</ele>
        <time>2020-06-07T20:49:03Z</time>
      </trkpt>
      <trkpt lat="51.22984506771" lon="4.457296104246">
        <ele>15.2</ele>
        <time>2020-06-07T20:49:07Z</time>
      </trkpt>
      <trkpt lat="51.229801230373" lon="4.457562816304">
        <ele>5</ele>
        <time>2020-06-07T20:49:22Z</time>
      </trkpt>
      <trkpt lat="51.229703832695" lon="4.457816536417">
        <ele>0</ele>
        <time>2020-06-07T20:49:49Z</time>
      </trkpt>
      <trkpt lat="51.229458494482" lon="4.457957352337">
        <ele>0</ele>
        <time>2020-06-07T20:50:26Z</time>
      </trkpt>
      <trkpt lat="51.229485819476" lon="4.457937906329">
        <ele>0</ele>
        <time>2020-06-07T20:50:29Z</time>
      </trkpt>
    </trkseg>
  </trk>
</gpx>